createdAt,value
2019-02-18T00:01:01.574Z,15.83
2019-02-18T00:02:03.819Z,15.84
2019-02-18T00:03:06.775Z,15.83
2019-02-18T00:04:08.988Z,15.83
2019-02-18T00:05:11.196Z,15.83
2019-02-18T00:06:14.451Z,15.84
2019-02-18T00:07:16.689Z,15.84
2019-02-18T00:08:18.888Z,15.85
2019-02-18T00:09:22.236Z,15.84
2019-02-18T00:10:24.440Z,15.83
2019-02-18T00:11:26.624Z,15.83
2019-02-18T00:12:29.149Z,15.83
2019-02-18T00:13:31.860Z,15.84
2019-02-18T00:14:34.065Z,15.85
2019-02-18T00:15:37.414Z,15.85
2019-02-18T00:16:39.605Z,15.85
2019-02-18T00:17:41.830Z,15.84
2019-02-18T00:18:44.241Z,15.84
2019-02-18T00:19:46.769Z,15.85
2019-02-18T00:20:48.970Z,15.84
2019-02-18T00:21:51.535Z,15.84
2019-02-18T00:22:53.776Z,15.84
2019-02-18T00:23:55.956Z,15.86
2019-02-18T00:24:58.168Z,15.85
2019-02-18T00:26:00.391Z,15.85
2019-02-18T00:27:02.704Z,15.85
2019-02-18T00:28:05.014Z,15.85
2019-02-18T00:29:07.181Z,15.85
2019-02-18T00:30:09.393Z,15.86
2019-02-18T00:31:11.642Z,15.87
2019-02-18T00:32:13.892Z,15.87
2019-02-18T00:33:19.083Z,15.85
2019-02-18T00:34:21.307Z,15.85
2019-02-18T00:35:23.513Z,15.85
2019-02-18T00:36:25.732Z,15.86
2019-02-18T00:37:27.933Z,15.86
2019-02-18T00:38:30.185Z,15.85
2019-02-18T00:39:32.483Z,15.85
2019-02-18T00:40:34.676Z,15.86
2019-02-18T00:41:37.032Z,15.87
2019-02-18T00:42:39.271Z,15.86
2019-02-18T00:43:41.488Z,15.85
2019-02-18T00:44:43.688Z,15.86
2019-02-18T00:45:45.903Z,15.86
2019-02-18T00:46:48.113Z,15.86
2019-02-18T00:47:50.333Z,15.85
2019-02-18T00:48:52.563Z,15.86
2019-02-18T00:49:54.807Z,15.86
2019-02-18T00:50:57.052Z,15.86
2019-02-18T00:51:59.347Z,15.86
2019-02-18T00:53:03.943Z,15.85
2019-02-18T00:54:05.442Z,15.85
2019-02-18T00:55:07.647Z,15.85
2019-02-18T00:56:09.844Z,15.86
2019-02-18T00:57:12.041Z,15.85
2019-02-18T00:58:14.267Z,15.86
2019-02-18T00:59:16.513Z,15.84
2019-02-18T01:00:18.855Z,15.86
2019-02-18T01:01:21.056Z,15.86
2019-02-18T01:02:23.258Z,15.86
2019-02-18T01:03:25.478Z,15.86
2019-02-18T01:04:27.724Z,15.86
2019-02-18T01:05:29.951Z,15.85
2019-02-18T01:06:32.301Z,15.85
2019-02-18T01:07:35.319Z,15.85
2019-02-18T01:08:37.624Z,15.84
2019-02-18T01:09:42.894Z,15.85
2019-02-18T01:10:45.107Z,15.85
2019-02-18T01:11:47.315Z,15.85
2019-02-18T01:12:49.544Z,15.84
2019-02-18T01:13:51.760Z,15.84
2019-02-18T01:14:53.986Z,15.84
2019-02-18T01:15:56.200Z,15.84
2019-02-18T01:16:58.395Z,15.84
2019-02-18T01:18:00.623Z,15.83
2019-02-18T01:19:02.831Z,15.84
2019-02-18T01:20:05.057Z,15.83
2019-02-18T01:21:07.287Z,15.83
2019-02-18T01:22:09.492Z,15.83
2019-02-18T01:23:11.698Z,15.83
2019-02-18T01:24:16.191Z,15.82
2019-02-18T01:25:18.431Z,15.82
2019-02-18T01:26:20.633Z,15.82
2019-02-18T01:27:22.836Z,15.82
2019-02-18T01:28:25.053Z,15.82
2019-02-18T01:29:27.253Z,15.83
2019-02-18T01:30:29.491Z,15.82
2019-02-18T01:31:31.691Z,15.82
2019-02-18T01:32:33.903Z,15.82
2019-02-18T01:33:37.123Z,15.81
2019-02-18T01:34:39.325Z,15.82
2019-02-18T01:35:41.555Z,15.81
2019-02-18T01:36:43.861Z,15.81
2019-02-18T01:37:46.429Z,15.81
2019-02-18T01:38:48.770Z,15.80
2019-02-18T01:39:50.991Z,15.81
2019-02-18T01:40:53.295Z,15.80
2019-02-18T01:41:55.505Z,15.81
2019-02-18T01:42:57.709Z,15.81
2019-02-18T01:44:02.629Z,15.82
2019-02-18T01:45:04.826Z,15.80
2019-02-18T01:46:07.175Z,15.80
2019-02-18T01:47:09.421Z,15.80
2019-02-18T01:48:11.625Z,15.79
2019-02-18T01:49:13.855Z,15.80
2019-02-18T01:50:16.054Z,15.80
2019-02-18T01:51:18.297Z,15.78
2019-02-18T01:52:20.605Z,15.79
2019-02-18T01:53:22.863Z,15.79
2019-02-18T01:54:25.059Z,15.79
2019-02-18T01:55:27.267Z,15.79
2019-02-18T01:56:29.541Z,15.79
2019-02-18T01:57:31.732Z,15.77
2019-02-18T01:58:34.023Z,15.78
2019-02-18T01:59:36.226Z,15.79
2019-02-18T02:00:38.350Z,15.78
2019-02-18T02:01:40.571Z,15.78
2019-02-18T02:02:42.775Z,15.78
2019-02-18T02:03:44.999Z,15.78
2019-02-18T02:04:47.210Z,15.79
2019-02-18T02:05:49.421Z,15.79
2019-02-18T02:06:51.649Z,15.78
2019-02-18T02:07:56.641Z,15.78
2019-02-18T02:08:57.727Z,15.77
2019-02-18T02:09:59.925Z,15.77
2019-02-18T02:11:02.147Z,15.78
2019-02-18T02:12:04.466Z,15.79
2019-02-18T02:13:06.673Z,15.78
2019-02-18T02:14:08.875Z,15.77
2019-02-18T02:15:11.081Z,15.78
2019-02-18T02:16:13.293Z,15.78
2019-02-18T02:17:15.538Z,15.79
2019-02-18T02:18:17.750Z,15.79
2019-02-18T02:19:19.971Z,15.78
2019-02-18T02:20:22.164Z,15.78
2019-02-18T02:21:24.372Z,15.77
2019-02-18T02:22:28.170Z,15.78
2019-02-18T02:23:30.384Z,15.78
2019-02-18T02:24:32.574Z,15.77
2019-02-18T02:25:34.710Z,15.78
2019-02-18T02:26:36.922Z,15.78
2019-02-18T02:27:39.128Z,15.78
2019-02-18T02:28:41.319Z,15.77
2019-02-18T02:29:43.532Z,15.78
2019-02-18T02:30:45.731Z,15.78
2019-02-18T02:31:47.964Z,15.78
2019-02-18T02:32:50.173Z,15.77
2019-02-18T02:33:52.390Z,15.78
2019-02-18T02:34:54.581Z,15.78
2019-02-18T02:35:56.804Z,15.77
2019-02-18T02:36:59.046Z,15.77
2019-02-18T02:38:07.767Z,15.77
2019-02-18T02:39:05.253Z,15.77
2019-02-18T02:40:07.496Z,15.77
2019-02-18T02:41:09.701Z,15.76
2019-02-18T02:42:11.924Z,15.77
2019-02-18T02:43:14.124Z,15.77
2019-02-18T02:44:16.495Z,15.77
2019-02-18T02:45:18.690Z,15.77
2019-02-18T02:46:20.884Z,15.78
2019-02-18T02:47:23.106Z,15.76
2019-02-18T02:48:25.296Z,15.77
2019-02-18T02:49:27.508Z,15.76
2019-02-18T02:50:29.695Z,15.76
2019-02-18T02:51:31.895Z,15.76
2019-02-18T02:52:34.121Z,15.77
2019-02-18T02:53:36.317Z,15.77
2019-02-18T02:54:38.524Z,15.76
2019-02-18T02:55:40.721Z,15.77
2019-02-18T02:56:42.922Z,15.76
2019-02-18T02:57:45.134Z,15.77
2019-02-18T02:58:47.347Z,15.76
2019-02-18T02:59:49.550Z,15.76
2019-02-18T03:00:51.774Z,15.76
2019-02-18T03:01:53.976Z,15.77
2019-02-18T03:02:56.193Z,15.76
2019-02-18T03:03:58.435Z,15.77
2019-02-18T03:05:00.640Z,15.76
2019-02-18T03:06:02.832Z,15.77
2019-02-18T03:07:05.024Z,15.76
2019-02-18T03:08:19.500Z,15.76
2019-02-18T03:09:11.076Z,15.75
2019-02-18T03:10:13.322Z,15.76
2019-02-18T03:11:15.534Z,15.77
2019-02-18T03:12:17.751Z,15.76
2019-02-18T03:13:20.063Z,15.76
2019-02-18T03:14:22.272Z,15.76
2019-02-18T03:15:24.471Z,15.76
2019-02-18T03:16:26.800Z,15.78
2019-02-18T03:17:29.025Z,15.76
2019-02-18T03:18:31.245Z,15.77
2019-02-18T03:19:33.426Z,15.76
2019-02-18T03:20:35.624Z,15.75
2019-02-18T03:21:38.928Z,15.75
2019-02-18T03:22:42.755Z,15.76
2019-02-18T03:23:44.947Z,15.76
2019-02-18T03:24:47.152Z,15.78
2019-02-18T03:25:49.349Z,15.77
2019-02-18T03:26:51.545Z,15.76
2019-02-18T03:27:53.764Z,15.77
2019-02-18T03:28:55.978Z,15.77
2019-02-18T03:29:58.150Z,15.76
2019-02-18T03:31:00.357Z,15.76
2019-02-18T03:32:02.558Z,15.75
2019-02-18T03:33:04.770Z,15.76
2019-02-18T03:34:07.056Z,15.74
2019-02-18T03:35:09.259Z,15.76
2019-02-18T03:36:11.452Z,15.75
2019-02-18T03:37:13.583Z,15.76
2019-02-18T03:38:15.812Z,15.76
2019-02-18T03:39:18.018Z,15.76
2019-02-18T03:40:20.230Z,15.75
2019-02-18T03:41:22.445Z,15.75
2019-02-18T03:42:26.750Z,15.76
2019-02-18T03:43:28.943Z,15.75
2019-02-18T03:44:31.151Z,15.75
2019-02-18T03:45:33.343Z,15.75
2019-02-18T03:46:35.571Z,15.76
2019-02-18T03:47:37.789Z,15.76
2019-02-18T03:48:40.002Z,15.76
2019-02-18T03:49:42.216Z,15.77
2019-02-18T03:50:44.415Z,15.75
2019-02-18T03:51:46.616Z,15.75
2019-02-18T03:52:48.829Z,15.75
2019-02-18T03:53:51.023Z,15.76
2019-02-18T03:54:53.148Z,15.76
2019-02-18T03:55:55.354Z,15.76
2019-02-18T03:56:57.565Z,15.77
2019-02-18T03:57:59.778Z,15.77
2019-02-18T03:59:01.969Z,15.76
2019-02-18T04:00:04.183Z,15.76
2019-02-18T04:01:06.394Z,15.75
2019-02-18T04:02:08.614Z,15.75
2019-02-18T04:03:10.820Z,15.76
2019-02-18T04:04:13.016Z,15.75
2019-02-18T04:05:15.224Z,15.75
2019-02-18T04:06:17.443Z,15.75
2019-02-18T04:07:19.667Z,15.75
2019-02-18T04:08:21.893Z,15.76
2019-02-18T04:09:24.331Z,15.75
2019-02-18T04:10:26.557Z,15.75
2019-02-18T04:11:28.753Z,15.76
2019-02-18T04:12:30.946Z,15.75
2019-02-18T04:13:33.175Z,15.76
2019-02-18T04:14:35.370Z,15.75
2019-02-18T04:15:37.585Z,15.75
2019-02-18T04:16:39.784Z,15.74
2019-02-18T04:17:41.990Z,15.75
2019-02-18T04:18:44.203Z,15.76
2019-02-18T04:19:46.411Z,15.75
2019-02-18T04:20:48.619Z,15.74
2019-02-18T04:21:53.839Z,15.75
2019-02-18T04:22:56.061Z,15.75
2019-02-18T04:23:58.267Z,15.74
2019-02-18T04:25:00.471Z,15.75
2019-02-18T04:26:02.678Z,15.74
2019-02-18T04:27:04.890Z,15.75
2019-02-18T04:28:07.113Z,15.75
2019-02-18T04:29:09.318Z,15.75
2019-02-18T04:30:13.652Z,15.75
2019-02-18T04:31:15.361Z,15.74
2019-02-18T04:32:17.569Z,15.74
2019-02-18T04:33:19.794Z,15.74
2019-02-18T04:34:21.999Z,15.74
2019-02-18T04:35:24.204Z,15.74
2019-02-18T04:36:26.413Z,15.75
2019-02-18T04:37:28.602Z,15.75
2019-02-18T04:38:30.823Z,15.75
2019-02-18T04:39:33.025Z,15.74
2019-02-18T04:40:35.259Z,15.74
2019-02-18T04:41:37.483Z,15.75
2019-02-18T04:42:39.686Z,15.74
2019-02-18T04:43:42.270Z,15.75
2019-02-18T04:44:44.503Z,15.74
2019-02-18T04:45:46.718Z,15.74
2019-02-18T04:46:48.932Z,15.73
2019-02-18T04:47:51.285Z,15.74
2019-02-18T04:48:53.463Z,15.74
2019-02-18T04:49:55.661Z,15.75
2019-02-18T04:50:57.798Z,15.74
2019-02-18T04:52:00.008Z,15.74
2019-02-18T04:53:02.219Z,15.73
2019-02-18T04:54:04.460Z,15.74
2019-02-18T04:55:06.676Z,15.74
2019-02-18T04:56:08.897Z,15.74
2019-02-18T04:57:11.099Z,15.74
2019-02-18T04:58:13.306Z,15.74
2019-02-18T04:59:15.521Z,15.73
2019-02-18T05:00:17.654Z,15.74
2019-02-18T05:01:19.862Z,15.73
2019-02-18T05:02:22.066Z,15.74
2019-02-18T05:03:24.272Z,15.75
2019-02-18T05:04:26.524Z,15.73
2019-02-18T05:05:28.724Z,15.74
2019-02-18T05:06:30.969Z,15.73
2019-02-18T05:07:33.158Z,15.73
2019-02-18T05:08:35.378Z,15.74
2019-02-18T05:09:39.805Z,15.74
2019-02-18T05:10:41.399Z,15.74
2019-02-18T05:11:43.601Z,15.74
2019-02-18T05:12:45.805Z,15.74
2019-02-18T05:13:47.993Z,15.74
2019-02-18T05:14:50.260Z,15.74
2019-02-18T05:15:52.471Z,15.74
2019-02-18T05:16:54.680Z,15.74
2019-02-18T05:17:56.894Z,15.74
2019-02-18T05:18:59.099Z,15.74
2019-02-18T05:20:01.323Z,15.74
2019-02-18T05:21:03.520Z,15.74
2019-02-18T05:22:05.726Z,15.73
2019-02-18T05:23:07.934Z,15.74
2019-02-18T05:24:10.133Z,15.73
2019-02-18T05:25:12.951Z,15.73
2019-02-18T05:26:15.431Z,15.74
2019-02-18T05:27:17.602Z,15.75
2019-02-18T05:28:19.820Z,15.74
2019-02-18T05:29:22.044Z,15.73
2019-02-18T05:30:24.269Z,15.73
2019-02-18T05:31:26.496Z,15.74
2019-02-18T05:32:28.696Z,15.73
2019-02-18T05:33:31.119Z,15.72
2019-02-18T05:34:33.320Z,15.74
2019-02-18T05:35:35.529Z,15.73
2019-02-18T05:36:37.756Z,15.73
2019-02-18T05:37:39.960Z,15.73
2019-02-18T05:38:42.178Z,15.74
2019-02-18T05:39:44.380Z,15.74
2019-02-18T05:40:46.611Z,15.73
2019-02-18T05:41:48.931Z,15.74
2019-02-18T05:42:51.135Z,15.73
2019-02-18T05:43:53.338Z,15.74
2019-02-18T05:44:55.540Z,15.74
2019-02-18T05:45:57.762Z,15.73
2019-02-18T05:46:59.996Z,15.73
2019-02-18T05:48:02.201Z,15.74
2019-02-18T05:49:04.403Z,15.73
2019-02-18T05:50:06.608Z,15.73
2019-02-18T05:51:08.845Z,15.74
2019-02-18T05:52:11.046Z,15.74
2019-02-18T05:53:13.236Z,15.75
2019-02-18T05:54:15.456Z,15.73
2019-02-18T05:55:17.955Z,15.74
2019-02-18T05:56:20.216Z,15.75
2019-02-18T05:57:23.020Z,15.77
2019-02-18T05:58:25.433Z,15.77
2019-02-18T05:59:27.656Z,15.81
2019-02-18T06:00:29.856Z,15.83
2019-02-18T06:01:32.149Z,15.87
2019-02-18T06:02:34.359Z,15.90
2019-02-18T06:03:38.291Z,15.92
2019-02-18T06:04:40.500Z,15.95
2019-02-18T06:05:44.661Z,15.98
2019-02-18T06:06:46.585Z,16.00
2019-02-18T06:07:48.782Z,16.04
2019-02-18T06:08:50.985Z,16.05
2019-02-18T06:09:53.192Z,16.09
2019-02-18T06:10:55.388Z,16.09
2019-02-18T06:11:57.721Z,16.09
2019-02-18T06:12:59.928Z,16.10
2019-02-18T06:14:02.144Z,16.10
2019-02-18T06:15:04.347Z,16.11
2019-02-18T06:16:06.564Z,16.11
2019-02-18T06:17:08.789Z,16.11
2019-02-18T06:18:10.983Z,16.12
2019-02-18T06:19:13.198Z,16.11
2019-02-18T06:20:15.507Z,16.10
2019-02-18T06:21:17.724Z,16.11
2019-02-18T06:22:19.950Z,16.10
2019-02-18T06:23:22.179Z,16.10
2019-02-18T06:24:24.382Z,16.10
2019-02-18T06:25:26.595Z,16.09
2019-02-18T06:26:28.938Z,16.08
2019-02-18T06:27:31.290Z,16.07
2019-02-18T06:28:33.520Z,16.05
2019-02-18T06:29:35.739Z,16.04
2019-02-18T06:30:37.957Z,16.05
2019-02-18T06:31:40.342Z,16.03
2019-02-18T06:32:42.554Z,16.03
2019-02-18T06:33:44.762Z,16.03
2019-02-18T06:34:49.997Z,16.02
2019-02-18T06:35:52.211Z,16.01
2019-02-18T06:36:54.407Z,16.00
2019-02-18T06:37:56.663Z,15.99
2019-02-18T06:38:58.884Z,15.98
2019-02-18T06:40:01.101Z,15.98
2019-02-18T06:41:03.312Z,15.97
2019-02-18T06:42:05.548Z,15.96
2019-02-18T06:43:07.752Z,15.96
2019-02-18T06:44:09.962Z,15.94
2019-02-18T06:45:34.007Z,15.93
2019-02-18T06:46:42.262Z,15.91
2019-02-18T06:47:46.031Z,15.91
2019-02-18T06:48:52.300Z,15.89
2019-02-18T06:49:54.515Z,15.89
2019-02-18T06:50:56.732Z,15.88
2019-02-18T06:51:59.247Z,15.87
2019-02-18T06:53:01.487Z,15.87
2019-02-18T06:54:03.751Z,15.85
2019-02-18T06:55:05.957Z,15.85
2019-02-18T06:56:08.408Z,15.85
2019-02-18T06:57:38.439Z,15.83
2019-02-18T06:58:52.608Z,15.84
2019-02-18T06:59:57.196Z,15.82
2019-02-18T07:01:24.398Z,15.82
2019-02-18T07:02:35.785Z,15.80
2019-02-18T07:03:43.471Z,15.80
2019-02-18T07:04:55.674Z,15.81
2019-02-18T07:06:16.763Z,15.80
2019-02-18T07:07:27.953Z,15.79
2019-02-18T07:08:56.127Z,15.78
2019-02-18T07:10:17.461Z,15.76
2019-02-18T07:11:27.346Z,15.77
2019-02-18T07:12:32.108Z,15.75
2019-02-18T07:13:34.310Z,15.75
2019-02-18T07:14:36.519Z,15.75
2019-02-18T07:15:38.735Z,15.76
2019-02-18T07:16:40.943Z,15.76
2019-02-18T07:17:43.290Z,15.74
2019-02-18T07:18:45.533Z,15.74
2019-02-18T07:19:47.768Z,15.73
2019-02-18T07:20:50.027Z,15.73
2019-02-18T07:21:52.213Z,15.73
2019-02-18T07:22:54.413Z,15.74
2019-02-18T07:23:56.608Z,15.74
2019-02-18T07:25:02.361Z,15.73
2019-02-18T07:26:04.567Z,15.72
2019-02-18T07:27:06.773Z,15.73
2019-02-18T07:28:08.993Z,15.73
2019-02-18T07:29:11.236Z,15.72
2019-02-18T07:30:13.473Z,15.73
2019-02-18T07:31:15.734Z,15.71
2019-02-18T07:32:17.941Z,15.72
2019-02-18T07:33:20.147Z,15.71
2019-02-18T07:34:22.354Z,15.71
2019-02-18T07:35:24.589Z,15.71
2019-02-18T07:36:26.788Z,15.69
2019-02-18T07:37:28.982Z,15.70
2019-02-18T07:38:31.202Z,15.69
2019-02-18T07:39:33.405Z,15.70
2019-02-18T07:40:35.715Z,15.70
2019-02-18T07:41:38.077Z,15.71
2019-02-18T07:42:40.287Z,15.71
2019-02-18T07:43:42.499Z,15.70
2019-02-18T07:44:44.722Z,15.70
2019-02-18T07:45:47.018Z,15.71
2019-02-18T07:46:50.602Z,15.70
2019-02-18T07:47:52.731Z,15.71
2019-02-18T07:48:54.955Z,15.71
2019-02-18T07:49:57.158Z,15.72
2019-02-18T07:50:59.400Z,15.74
2019-02-18T07:52:01.624Z,15.77
2019-02-18T07:53:04.344Z,15.82
2019-02-18T07:54:06.559Z,15.85
2019-02-18T07:55:08.774Z,15.87
2019-02-18T07:56:11.003Z,15.92
2019-02-18T07:57:13.235Z,15.95
2019-02-18T07:58:15.585Z,15.99
2019-02-18T07:59:17.792Z,16.02
2019-02-18T08:00:19.998Z,16.04
2019-02-18T08:01:22.238Z,16.08
2019-02-18T08:02:24.444Z,16.10
2019-02-18T08:03:26.655Z,16.11
2019-02-18T08:04:28.863Z,16.15
2019-02-18T08:05:31.099Z,16.15
2019-02-18T08:06:33.330Z,16.18
2019-02-18T08:07:35.544Z,16.21
2019-02-18T08:08:37.977Z,16.23
2019-02-18T08:09:40.199Z,16.24
2019-02-18T08:10:42.417Z,16.26
2019-02-18T08:11:44.908Z,16.26
2019-02-18T08:12:47.115Z,16.26
2019-02-18T08:13:49.326Z,16.27
2019-02-18T08:14:54.506Z,16.27
2019-02-18T08:15:56.802Z,16.27
2019-02-18T08:16:59.062Z,16.26
2019-02-18T08:18:01.257Z,16.26
2019-02-18T08:19:03.668Z,16.25
2019-02-18T08:20:05.794Z,16.27
2019-02-18T08:21:08.010Z,16.26
2019-02-18T08:22:10.232Z,16.25
2019-02-18T08:23:12.500Z,16.23
2019-02-18T08:24:14.810Z,16.24
2019-02-18T08:25:17.302Z,16.23
2019-02-18T08:26:19.503Z,16.23
2019-02-18T08:27:21.760Z,16.23
2019-02-18T08:28:23.976Z,16.21
2019-02-18T08:29:26.174Z,16.21
2019-02-18T08:30:28.394Z,16.19
2019-02-18T08:31:30.608Z,16.20
2019-02-18T08:32:32.980Z,16.18
2019-02-18T08:33:35.188Z,16.18
2019-02-18T08:34:40.179Z,16.18
2019-02-18T08:35:42.391Z,16.15
2019-02-18T08:36:44.602Z,16.16
2019-02-18T08:37:46.901Z,16.16
2019-02-18T08:38:49.122Z,16.16
2019-02-18T08:39:51.318Z,16.15
2019-02-18T08:40:53.538Z,16.16
2019-02-18T08:41:55.744Z,16.16
2019-02-18T08:42:58.184Z,16.15
2019-02-18T08:44:00.394Z,16.14
2019-02-18T08:45:02.598Z,16.14
2019-02-18T08:46:04.824Z,16.14
2019-02-18T08:47:07.051Z,16.13
2019-02-18T08:48:09.351Z,16.13
2019-02-18T08:49:11.552Z,16.13
2019-02-18T08:50:13.806Z,16.13
2019-02-18T08:51:15.959Z,16.13
2019-02-18T08:52:18.164Z,16.12
2019-02-18T08:53:20.438Z,16.12
2019-02-18T08:54:22.668Z,16.12
2019-02-18T08:55:24.922Z,16.13
2019-02-18T08:56:29.427Z,16.11
2019-02-18T08:57:31.829Z,16.11
2019-02-18T08:58:34.064Z,16.12
2019-02-18T08:59:36.272Z,16.13
2019-02-18T09:00:38.479Z,16.12
2019-02-18T09:01:40.676Z,16.12
2019-02-18T09:02:44.454Z,16.12
2019-02-18T09:03:46.849Z,16.12
2019-02-18T09:04:49.131Z,16.11
2019-02-18T09:05:51.294Z,16.11
2019-02-18T09:06:53.559Z,16.11
2019-02-18T09:07:55.794Z,16.11
2019-02-18T09:08:58.049Z,16.11
2019-02-18T09:10:00.374Z,16.11
2019-02-18T09:11:02.694Z,16.11
2019-02-18T09:12:06.106Z,16.10
2019-02-18T09:13:08.324Z,16.11
2019-02-18T09:14:10.563Z,16.10
2019-02-18T09:15:15.056Z,16.09
2019-02-18T09:16:17.243Z,16.08
2019-02-18T09:17:19.439Z,16.09
2019-02-18T09:18:23.147Z,16.09
2019-02-18T09:19:25.387Z,16.08
2019-02-18T09:20:27.846Z,16.09
2019-02-18T09:21:31.687Z,16.08
2019-02-18T09:22:52.828Z,16.09
2019-02-18T09:24:20.211Z,16.09
2019-02-18T09:25:25.304Z,16.09
2019-02-18T09:26:29.605Z,16.08
2019-02-18T09:27:31.809Z,16.08
2019-02-18T09:28:34.128Z,16.08
2019-02-18T09:29:36.376Z,16.07
2019-02-18T09:30:40.844Z,16.06
2019-02-18T09:31:43.092Z,16.07
2019-02-18T09:32:45.375Z,16.07
2019-02-18T09:33:47.676Z,16.07
2019-02-18T09:34:53.160Z,16.07
2019-02-18T09:35:53.829Z,16.07
2019-02-18T09:36:56.308Z,16.08
2019-02-18T09:37:59.845Z,16.07
2019-02-18T09:39:02.105Z,16.08
2019-02-18T09:40:04.309Z,16.07
2019-02-18T09:41:06.555Z,16.06
2019-02-18T09:42:09.055Z,16.07
2019-02-18T09:43:11.306Z,16.08
2019-02-18T09:44:13.868Z,16.07
2019-02-18T09:45:16.643Z,16.07
2019-02-18T09:46:18.937Z,16.07
2019-02-18T09:47:21.194Z,16.07
2019-02-18T09:48:23.541Z,16.07
2019-02-18T09:49:25.773Z,16.08
2019-02-18T09:50:33.520Z,16.08
2019-02-18T09:51:35.713Z,16.07
2019-02-18T09:52:37.963Z,16.09
2019-02-18T09:53:40.502Z,16.07
2019-02-18T09:54:44.495Z,16.05
2019-02-18T09:55:47.020Z,16.04
2019-02-18T09:56:49.537Z,16.03
2019-02-18T09:57:52.054Z,16.02
2019-02-18T09:58:54.396Z,16.02
2019-02-18T09:59:56.724Z,16.01
2019-02-18T10:00:59.176Z,15.99
2019-02-18T10:02:01.624Z,15.99
2019-02-18T10:03:03.985Z,15.98
2019-02-18T10:04:07.471Z,15.99
2019-02-18T10:05:10.064Z,15.99
2019-02-18T10:06:12.531Z,15.97
2019-02-18T10:07:14.935Z,15.97
2019-02-18T10:08:17.310Z,15.98
2019-02-18T10:09:19.674Z,15.97
2019-02-18T10:10:21.917Z,15.97
2019-02-18T10:11:24.196Z,15.97
2019-02-18T10:12:26.426Z,15.97
2019-02-18T10:13:28.785Z,15.96
2019-02-18T10:14:31.060Z,15.95
2019-02-18T10:15:33.278Z,15.97
2019-02-18T10:16:35.570Z,15.96
2019-02-18T10:17:37.857Z,15.97
2019-02-18T10:18:40.076Z,15.97
2019-02-18T10:19:43.085Z,15.97
2019-02-18T10:20:45.461Z,15.95
2019-02-18T10:21:47.714Z,15.96
2019-02-18T10:22:49.931Z,15.96
2019-02-18T10:23:52.266Z,15.97
2019-02-18T10:24:54.507Z,15.96
2019-02-18T10:25:56.717Z,15.95
2019-02-18T10:26:58.985Z,15.96
2019-02-18T10:28:01.407Z,15.96
2019-02-18T10:29:03.676Z,15.95
2019-02-18T10:30:06.031Z,15.96
2019-02-18T10:31:08.278Z,15.96
2019-02-18T10:32:10.667Z,15.97
2019-02-18T10:33:14.911Z,15.95
2019-02-18T10:34:18.136Z,15.96
2019-02-18T10:35:20.556Z,15.95
2019-02-18T10:36:25.055Z,15.95
2019-02-18T10:37:27.341Z,15.96
2019-02-18T10:38:29.597Z,15.98
2019-02-18T10:39:31.858Z,15.97
2019-02-18T10:40:34.050Z,15.97
2019-02-18T10:41:39.159Z,15.97
2019-02-18T10:42:41.410Z,15.97
2019-02-18T10:43:45.018Z,15.97
2019-02-18T10:44:47.164Z,15.96
2019-02-18T10:45:49.693Z,15.96
2019-02-18T10:46:51.916Z,15.96
2019-02-18T10:47:54.186Z,15.95
2019-02-18T10:48:56.679Z,15.95
2019-02-18T10:49:58.939Z,15.96
2019-02-18T10:51:02.964Z,15.95
2019-02-18T10:52:05.234Z,15.96
2019-02-18T10:53:07.437Z,15.96
2019-02-18T10:54:09.736Z,15.95
2019-02-18T10:55:12.348Z,15.95
2019-02-18T10:56:14.883Z,15.97
2019-02-18T10:57:17.496Z,15.95
2019-02-18T10:58:19.753Z,15.96
2019-02-18T10:59:21.962Z,15.95
2019-02-18T11:00:27.347Z,15.96
2019-02-18T11:01:29.567Z,15.96
2019-02-18T11:02:31.825Z,15.95
2019-02-18T11:03:35.747Z,15.96
2019-02-18T11:04:38.202Z,15.95
2019-02-18T11:05:43.117Z,15.95
2019-02-18T11:06:45.305Z,15.96
2019-02-18T11:07:47.558Z,15.97
2019-02-18T11:08:49.801Z,15.96
2019-02-18T11:09:52.219Z,15.95
2019-02-18T11:10:54.598Z,15.96
2019-02-18T11:11:56.955Z,15.96
2019-02-18T11:12:59.243Z,15.95
2019-02-18T11:14:01.781Z,15.96
2019-02-18T11:15:04.255Z,15.96
2019-02-18T11:16:06.856Z,15.96
2019-02-18T11:17:09.176Z,15.96
2019-02-18T11:18:11.426Z,15.97
2019-02-18T11:19:13.656Z,15.97
2019-02-18T11:20:15.875Z,15.96
2019-02-18T11:21:20.345Z,15.96
2019-02-18T11:22:22.558Z,15.96
2019-02-18T11:23:24.777Z,15.97
2019-02-18T11:24:27.178Z,15.97
2019-02-18T11:25:30.044Z,15.96
2019-02-18T11:26:32.378Z,15.96
2019-02-18T11:27:37.570Z,15.96
2019-02-18T11:28:39.997Z,15.97
2019-02-18T11:29:42.372Z,15.96
2019-02-18T11:30:44.772Z,15.95
2019-02-18T11:31:47.157Z,15.96
2019-02-18T11:32:49.375Z,15.96
2019-02-18T11:33:51.624Z,15.96
2019-02-18T11:34:53.847Z,15.95
2019-02-18T11:35:56.078Z,15.96
2019-02-18T11:36:58.295Z,15.96
2019-02-18T11:38:00.809Z,15.96
2019-02-18T11:39:04.415Z,15.97
2019-02-18T11:40:06.832Z,15.96
2019-02-18T11:41:09.080Z,15.96
2019-02-18T11:42:11.293Z,15.95
2019-02-18T11:43:13.519Z,15.95
2019-02-18T11:44:15.737Z,15.96
2019-02-18T11:45:17.935Z,15.96
2019-02-18T11:46:20.143Z,15.97
2019-02-18T11:47:23.529Z,15.97
2019-02-18T11:48:25.665Z,15.97
2019-02-18T11:49:28.198Z,15.97
2019-02-18T11:50:30.472Z,15.97
2019-02-18T11:51:32.681Z,15.96
2019-02-18T11:52:34.989Z,15.97
2019-02-18T11:53:37.236Z,15.97
2019-02-18T11:54:39.537Z,15.97
2019-02-18T11:55:41.771Z,15.96
2019-02-18T11:56:44.302Z,15.97
2019-02-18T11:57:46.631Z,15.97
2019-02-18T11:58:48.855Z,15.97
2019-02-18T11:59:51.150Z,15.97
2019-02-18T12:00:55.156Z,15.97
2019-02-18T12:01:57.709Z,15.97
2019-02-18T12:03:04.018Z,15.96
2019-02-18T12:04:04.067Z,15.96
2019-02-18T12:05:06.284Z,15.96
2019-02-18T12:06:08.847Z,15.97
2019-02-18T12:07:11.060Z,15.98
2019-02-18T12:08:13.666Z,15.97
2019-02-18T12:09:17.823Z,15.98
2019-02-18T12:10:20.268Z,15.98
2019-02-18T12:11:22.912Z,15.98
2019-02-18T12:12:25.521Z,15.99
2019-02-18T12:13:27.738Z,15.98
2019-02-18T12:14:29.977Z,15.98
2019-02-18T12:15:33.305Z,15.98
2019-02-18T12:16:35.626Z,15.99
2019-02-18T12:17:37.841Z,15.98
2019-02-18T12:18:40.108Z,15.99
2019-02-18T12:19:42.358Z,16.00
2019-02-18T12:20:44.598Z,16.01
2019-02-18T12:21:46.859Z,15.99
2019-02-18T12:22:49.423Z,16.00
2019-02-18T12:23:51.675Z,16.00
2019-02-18T12:24:54.011Z,16.02
2019-02-18T12:25:56.225Z,16.01
2019-02-18T12:26:58.488Z,16.01
2019-02-18T12:28:00.739Z,16.01
2019-02-18T12:29:02.974Z,16.00
2019-02-18T12:30:05.201Z,16.01
2019-02-18T12:31:07.440Z,16.01
2019-02-18T12:32:09.654Z,16.01
2019-02-18T12:33:14.375Z,16.02
2019-02-18T12:34:15.979Z,16.02
2019-02-18T12:35:18.202Z,16.01
2019-02-18T12:36:20.411Z,16.01
2019-02-18T12:37:22.655Z,16.02
2019-02-18T12:38:24.909Z,16.02
2019-02-18T12:39:27.242Z,16.03
2019-02-18T12:40:30.251Z,16.02
2019-02-18T12:41:33.457Z,16.02
2019-02-18T12:42:35.665Z,16.01
2019-02-18T12:43:37.914Z,16.02
2019-02-18T12:44:40.158Z,16.03
2019-02-18T12:45:42.951Z,16.03
2019-02-18T12:46:45.182Z,16.02
2019-02-18T12:47:47.425Z,16.03
2019-02-18T12:48:50.140Z,16.04
2019-02-18T12:49:52.422Z,16.05
2019-02-18T12:50:54.966Z,16.04
2019-02-18T12:51:57.901Z,16.04
2019-02-18T12:53:00.445Z,16.03
2019-02-18T12:54:05.067Z,16.04
2019-02-18T12:55:06.662Z,16.04
2019-02-18T12:56:09.583Z,16.04
2019-02-18T12:57:11.808Z,16.05
2019-02-18T12:58:14.041Z,16.04
2019-02-18T12:59:16.300Z,16.04
2019-02-18T13:00:18.519Z,16.05
2019-02-18T13:01:20.737Z,16.05
2019-02-18T13:02:22.963Z,16.05
2019-02-18T13:03:25.193Z,16.04
2019-02-18T13:04:32.065Z,16.04
2019-02-18T13:05:34.317Z,16.04
2019-02-18T13:06:36.853Z,16.04
2019-02-18T13:07:39.053Z,16.04
2019-02-18T13:08:41.273Z,16.05
2019-02-18T13:09:44.016Z,16.04
2019-02-18T13:10:46.411Z,16.04
2019-02-18T13:11:58.506Z,16.03
2019-02-18T13:12:52.656Z,16.03
2019-02-18T13:13:54.889Z,16.04
2019-02-18T13:14:57.198Z,16.04
2019-02-18T13:15:59.592Z,16.03
2019-02-18T13:17:02.179Z,16.05
2019-02-18T13:18:06.856Z,16.04
2019-02-18T13:19:09.075Z,16.03
2019-02-18T13:20:11.343Z,16.04
2019-02-18T13:21:13.536Z,16.03
2019-02-18T13:22:15.775Z,16.04
2019-02-18T13:23:18.037Z,16.04
2019-02-18T13:24:22.947Z,16.04
2019-02-18T13:25:25.163Z,16.04
2019-02-18T13:26:29.215Z,16.04
2019-02-18T13:27:31.708Z,16.04
2019-02-18T13:28:35.499Z,16.04